sensor_id;sensor_type;location;lat;lon;timestamp;P1;durP1;ratioP1;P2;durP2;ratioP2
7969;SDS011;4030;52.362;9.206;2023-07-16T00:01:30;1.30;;;1.00;;
7969;SDS011;4030;52.362;9.206;2023-07-16T00:03:56;1.30;;;1.00;;
7969;SDS011;4030;52.362;9.206;2023-07-16T00:06:22;1.83;;;1.08;;
7969;SDS011;4030;52.362;9.206;2023-07-16T00:08:47;1.45;;;1.30;;
7969;SDS011;4030;52.362;9.206;2023-07-16T00:11:13;1.45;;;1.20;;
7969;SDS011;4030;52.362;9.206;2023-07-16T00:13:39;1.20;;;1.10;;
7969;SDS011;4030;52.362;9.206;2023-07-16T00:16:10;2.00;;;1.30;;
7969;SDS011;4030;52.362;9.206;2023-07-16T00:18:37;1.45;;;1.10;;
7969;SDS011;4030;52.362;9.206;2023-07-16T00:21:02;1.20;;;0.93;;
7969;SDS011;4030;52.362;9.206;2023-07-16T00:23:28;1.65;;;1.10;;
7969;SDS011;4030;52.362;9.206;2023-07-16T00:25:54;1.60;;;1.00;;
7969;SDS011;4030;52.362;9.206;2023-07-16T00:28:19;1.10;;;1.00;;
7969;SDS011;4030;52.362;9.206;2023-07-16T00:30:45;1.75;;;1.27;;
7969;SDS011;4030;52.362;9.206;2023-07-16T00:33:11;1.75;;;1.10;;
7969;SDS011;4030;52.362;9.206;2023-07-16T00:35:37;1.33;;;1.00;;
7969;SDS011;4030;52.362;9.206;2023-07-16T00:38:02;1.23;;;1.00;;
7969;SDS011;4030;52.362;9.206;2023-07-16T00:40:28;1.58;;;1.15;;
7969;SDS011;4030;52.362;9.206;2023-07-16T00:42:54;1.50;;;1.15;;
7969;SDS011;4030;52.362;9.206;2023-07-16T00:45:19;1.92;;;1.20;;
7969;SDS011;4030;52.362;9.206;2023-07-16T00:47:45;2.17;;;1.20;;
7969;SDS011;4030;52.362;9.206;2023-07-16T00:50:11;1.80;;;1.15;;
7969;SDS011;4030;52.362;9.206;2023-07-16T00:52:37;1.33;;;1.00;;
7969;SDS011;4030;52.362;9.206;2023-07-16T00:55:04;1.05;;;0.98;;
7969;SDS011;4030;52.362;9.206;2023-07-16T00:57:31;2.17;;;1.20;;
7969;SDS011;4030;52.362;9.206;2023-07-16T00:59:58;1.50;;;1.20;;
7969;SDS011;4030;52.362;9.206;2023-07-16T01:02:24;3.72;;;1.20;;
7969;SDS011;4030;52.362;9.206;2023-07-16T01:04:50;2.08;;;1.20;;
7969;SDS011;4030;52.362;9.206;2023-07-16T01:07:16;1.50;;;1.20;;
7969;SDS011;4030;52.362;9.206;2023-07-16T01:09:46;1.20;;;1.00;;
7969;SDS011;4030;52.362;9.206;2023-07-16T01:12:12;1.80;;;1.20;;
7969;SDS011;4030;52.362;9.206;2023-07-16T01:14:39;1.25;;;0.98;;
7969;SDS011;4030;52.362;9.206;2023-07-16T01:17:06;2.38;;;1.10;;
7969;SDS011;4030;52.362;9.206;2023-07-16T01:19:32;1.83;;;1.10;;
7969;SDS011;4030;52.362;9.206;2023-07-16T01:24:51;1.88;;;1.25;;
7969;SDS011;4030;52.362;9.206;2023-07-16T01:30:11;2.55;;;1.20;;
7969;SDS011;4030;52.362;9.206;2023-07-16T01:32:43;1.52;;;1.10;;
7969;SDS011;4030;52.362;9.206;2023-07-16T01:35:11;2.30;;;1.23;;
7969;SDS011;4030;52.362;9.206;2023-07-16T01:37:38;2.13;;;1.25;;
7969;SDS011;4030;52.362;9.206;2023-07-16T01:40:07;1.92;;;1.17;;
7969;SDS011;4030;52.362;9.206;2023-07-16T01:42:36;2.53;;;1.10;;
7969;SDS011;4030;52.362;9.206;2023-07-16T01:45:02;2.40;;;1.23;;
7969;SDS011;4030;52.362;9.206;2023-07-16T01:49:54;2.53;;;1.20;;
7969;SDS011;4030;52.362;9.206;2023-07-16T01:52:20;1.23;;;1.10;;
7969;SDS011;4030;52.362;9.206;2023-07-16T01:54:46;1.65;;;1.20;;
7969;SDS011;4030;52.362;9.206;2023-07-16T01:57:12;2.15;;;1.20;;
7969;SDS011;4030;52.362;9.206;2023-07-16T01:59:38;3.08;;;1.30;;
7969;SDS011;4030;52.362;9.206;2023-07-16T02:02:04;1.50;;;1.23;;
7969;SDS011;4030;52.362;9.206;2023-07-16T02:04:30;2.08;;;1.17;;
7969;SDS011;4030;52.362;9.206;2023-07-16T02:06:55;1.70;;;1.08;;
7969;SDS011;4030;52.362;9.206;2023-07-16T02:09:21;1.83;;;1.10;;
7969;SDS011;4030;52.362;9.206;2023-07-16T02:11:47;2.63;;;1.20;;
7969;SDS011;4030;52.362;9.206;2023-07-16T02:14:13;2.05;;;1.10;;
7969;SDS011;4030;52.362;9.206;2023-07-16T02:16:40;1.77;;;1.30;;
7969;SDS011;4030;52.362;9.206;2023-07-16T02:19:06;2.35;;;1.13;;
7969;SDS011;4030;52.362;9.206;2023-07-16T02:21:32;3.17;;;1.23;;
7969;SDS011;4030;52.362;9.206;2023-07-16T02:23:58;2.47;;;1.30;;
7969;SDS011;4030;52.362;9.206;2023-07-16T02:26:23;1.70;;;1.20;;
7969;SDS011;4030;52.362;9.206;2023-07-16T02:28:49;2.10;;;1.15;;
7969;SDS011;4030;52.362;9.206;2023-07-16T02:31:15;2.25;;;1.60;;
7969;SDS011;4030;52.362;9.206;2023-07-16T02:33:40;2.80;;;1.35;;
7969;SDS011;4030;52.362;9.206;2023-07-16T02:36:06;1.88;;;1.23;;
7969;SDS011;4030;52.362;9.206;2023-07-16T02:38:32;2.00;;;1.15;;
7969;SDS011;4030;52.362;9.206;2023-07-16T02:40:58;1.67;;;1.05;;
7969;SDS011;4030;52.362;9.206;2023-07-16T02:43:23;1.33;;;1.05;;
7969;SDS011;4030;52.362;9.206;2023-07-16T02:45:49;1.45;;;1.00;;
7969;SDS011;4030;52.362;9.206;2023-07-16T02:48:15;1.50;;;1.15;;
7969;SDS011;4030;52.362;9.206;2023-07-16T02:50:40;2.00;;;1.10;;
7969;SDS011;4030;52.362;9.206;2023-07-16T02:53:06;3.78;;;1.58;;
7969;SDS011;4030;52.362;9.206;2023-07-16T02:55:34;2.03;;;1.17;;
7969;SDS011;4030;52.362;9.206;2023-07-16T02:58:00;2.10;;;1.50;;
7969;SDS011;4030;52.362;9.206;2023-07-16T03:00:33;1.95;;;1.30;;
7969;SDS011;4030;52.362;9.206;2023-07-16T03:02:59;1.90;;;1.35;;
7969;SDS011;4030;52.362;9.206;2023-07-16T03:05:25;2.15;;;1.30;;
7969;SDS011;4030;52.362;9.206;2023-07-16T03:07:54;2.75;;;1.30;;
7969;SDS011;4030;52.362;9.206;2023-07-16T03:10:22;1.67;;;1.17;;
7969;SDS011;4030;52.362;9.206;2023-07-16T03:12:51;1.20;;;1.10;;
7969;SDS011;4030;52.362;9.206;2023-07-16T03:15:17;1.75;;;1.20;;
7969;SDS011;4030;52.362;9.206;2023-07-16T03:17:43;2.13;;;1.30;;
7969;SDS011;4030;52.362;9.206;2023-07-16T03:20:09;1.48;;;1.10;;
7969;SDS011;4030;52.362;9.206;2023-07-16T03:22:35;1.92;;;1.15;;
7969;SDS011;4030;52.362;9.206;2023-07-16T03:25:01;2.47;;;1.08;;
7969;SDS011;4030;52.362;9.206;2023-07-16T03:27:27;1.45;;;1.20;;
7969;SDS011;4030;52.362;9.206;2023-07-16T03:29:53;1.90;;;1.30;;
7969;SDS011;4030;52.362;9.206;2023-07-16T03:32:19;1.17;;;1.00;;
7969;SDS011;4030;52.362;9.206;2023-07-16T03:34:45;1.80;;;1.30;;
7969;SDS011;4030;52.362;9.206;2023-07-16T03:37:10;1.70;;;1.20;;
7969;SDS011;4030;52.362;9.206;2023-07-16T03:39:36;1.88;;;1.38;;
7969;SDS011;4030;52.362;9.206;2023-07-16T03:42:02;2.88;;;1.38;;
7969;SDS011;4030;52.362;9.206;2023-07-16T03:44:29;1.30;;;1.20;;
7969;SDS011;4030;52.362;9.206;2023-07-16T03:46:54;2.03;;;1.35;;
7969;SDS011;4030;52.362;9.206;2023-07-16T03:49:20;1.70;;;1.42;;
7969;SDS011;4030;52.362;9.206;2023-07-16T03:51:46;1.92;;;1.40;;
7969;SDS011;4030;52.362;9.206;2023-07-16T03:54:11;3.50;;;1.40;;
7969;SDS011;4030;52.362;9.206;2023-07-16T03:56:37;1.73;;;1.27;;
7969;SDS011;4030;52.362;9.206;2023-07-16T03:59:03;2.28;;;1.40;;
7969;SDS011;4030;52.362;9.206;2023-07-16T04:01:29;1.88;;;1.23;;
7969;SDS011;4030;52.362;9.206;2023-07-16T04:03:54;1.70;;;1.20;;
7969;SDS011;4030;52.362;9.206;2023-07-16T04:06:20;1.70;;;1.33;;
7969;SDS011;4030;52.362;9.206;2023-07-16T04:08:46;2.70;;;1.40;;
7969;SDS011;4030;52.362;9.206;2023-07-16T04:11:11;1.83;;;1.23;;
7969;SDS011;4030;52.362;9.206;2023-07-16T04:13:37;2.10;;;1.40;;
7969;SDS011;4030;52.362;9.206;2023-07-16T04:16:03;2.85;;;1.38;;
7969;SDS011;4030;52.362;9.206;2023-07-16T04:18:29;1.40;;;1.30;;
7969;SDS011;4030;52.362;9.206;2023-07-16T04:20:54;3.08;;;1.60;;
7969;SDS011;4030;52.362;9.206;2023-07-16T04:23:20;1.50;;;1.20;;
7969;SDS011;4030;52.362;9.206;2023-07-16T04:25:47;1.80;;;1.48;;
7969;SDS011;4030;52.362;9.206;2023-07-16T04:28:20;2.83;;;1.40;;
7969;SDS011;4030;52.362;9.206;2023-07-16T04:30:45;2.33;;;1.55;;
7969;SDS011;4030;52.362;9.206;2023-07-16T04:33:11;2.22;;;1.58;;
7969;SDS011;4030;52.362;9.206;2023-07-16T04:35:37;1.65;;;1.38;;
7969;SDS011;4030;52.362;9.206;2023-07-16T04:38:03;1.55;;;1.45;;
7969;SDS011;4030;52.362;9.206;2023-07-16T04:40:29;2.88;;;1.33;;
7969;SDS011;4030;52.362;9.206;2023-07-16T04:42:55;3.80;;;1.45;;
7969;SDS011;4030;52.362;9.206;2023-07-16T04:45:21;1.90;;;1.42;;
7969;SDS011;4030;52.362;9.206;2023-07-16T04:47:47;2.72;;;1.45;;
7969;SDS011;4030;52.362;9.206;2023-07-16T04:50:13;2.58;;;1.50;;
7969;SDS011;4030;52.362;9.206;2023-07-16T04:52:38;2.08;;;1.40;;
7969;SDS011;4030;52.362;9.206;2023-07-16T04:55:04;1.58;;;1.42;;
7969;SDS011;4030;52.362;9.206;2023-07-16T04:57:32;2.97;;;1.80;;
7969;SDS011;4030;52.362;9.206;2023-07-16T04:59:58;2.08;;;1.30;;
7969;SDS011;4030;52.362;9.206;2023-07-16T05:02:24;1.63;;;1.20;;
7969;SDS011;4030;52.362;9.206;2023-07-16T05:04:50;2.22;;;1.40;;
7969;SDS011;4030;52.362;9.206;2023-07-16T05:07:15;1.67;;;1.35;;
7969;SDS011;4030;52.362;9.206;2023-07-16T05:09:42;3.30;;;1.40;;
7969;SDS011;4030;52.362;9.206;2023-07-16T05:12:08;2.55;;;1.45;;
7969;SDS011;4030;52.362;9.206;2023-07-16T05:14:42;2.10;;;1.30;;
7969;SDS011;4030;52.362;9.206;2023-07-16T05:17:13;2.10;;;1.48;;
7969;SDS011;4030;52.362;9.206;2023-07-16T05:19:39;2.08;;;1.30;;
7969;SDS011;4030;52.362;9.206;2023-07-16T05:22:05;1.80;;;1.25;;
7969;SDS011;4030;52.362;9.206;2023-07-16T05:24:32;2.17;;;1.30;;
7969;SDS011;4030;52.362;9.206;2023-07-16T05:26:58;3.00;;;1.35;;
7969;SDS011;4030;52.362;9.206;2023-07-16T05:29:23;2.35;;;1.58;;
7969;SDS011;4030;52.362;9.206;2023-07-16T05:31:49;2.00;;;1.27;;
7969;SDS011;4030;52.362;9.206;2023-07-16T05:34:15;1.75;;;1.30;;
7969;SDS011;4030;52.362;9.206;2023-07-16T05:36:41;1.80;;;1.30;;
7969;SDS011;4030;52.362;9.206;2023-07-16T05:39:09;1.75;;;1.40;;
7969;SDS011;4030;52.362;9.206;2023-07-16T05:41:37;2.42;;;1.40;;
7969;SDS011;4030;52.362;9.206;2023-07-16T05:44:04;1.98;;;1.45;;
7969;SDS011;4030;52.362;9.206;2023-07-16T05:46:30;1.85;;;1.20;;
7969;SDS011;4030;52.362;9.206;2023-07-16T05:48:55;2.35;;;1.55;;
7969;SDS011;4030;52.362;9.206;2023-07-16T05:51:21;2.22;;;1.30;;
7969;SDS011;4030;52.362;9.206;2023-07-16T05:53:47;3.75;;;1.50;;
7969;SDS011;4030;52.362;9.206;2023-07-16T05:56:13;2.85;;;1.67;;
7969;SDS011;4030;52.362;9.206;2023-07-16T05:58:39;2.55;;;1.40;;
7969;SDS011;4030;52.362;9.206;2023-07-16T06:01:06;1.95;;;1.35;;
7969;SDS011;4030;52.362;9.206;2023-07-16T06:03:31;3.28;;;1.60;;
7969;SDS011;4030;52.362;9.206;2023-07-16T06:05:57;2.05;;;1.40;;
7969;SDS011;4030;52.362;9.206;2023-07-16T06:08:23;1.98;;;1.45;;
7969;SDS011;4030;52.362;9.206;2023-07-16T06:10:49;1.75;;;1.30;;
7969;SDS011;4030;52.362;9.206;2023-07-16T06:13:16;3.05;;;1.20;;
7969;SDS011;4030;52.362;9.206;2023-07-16T06:15:42;2.85;;;1.25;;
7969;SDS011;4030;52.362;9.206;2023-07-16T06:18:09;2.00;;;1.20;;
7969;SDS011;4030;52.362;9.206;2023-07-16T06:20:35;3.13;;;1.33;;
7969;SDS011;4030;52.362;9.206;2023-07-16T06:23:00;2.75;;;1.33;;
7969;SDS011;4030;52.362;9.206;2023-07-16T06:25:26;2.35;;;1.40;;
7969;SDS011;4030;52.362;9.206;2023-07-16T06:27:51;2.13;;;1.40;;
7969;SDS011;4030;52.362;9.206;2023-07-16T06:30:17;1.75;;;1.30;;
7969;SDS011;4030;52.362;9.206;2023-07-16T06:32:43;4.40;;;1.48;;
7969;SDS011;4030;52.362;9.206;2023-07-16T06:35:09;2.50;;;1.33;;
7969;SDS011;4030;52.362;9.206;2023-07-16T06:37:35;2.92;;;1.30;;
7969;SDS011;4030;52.362;9.206;2023-07-16T06:40:00;2.45;;;1.40;;
7969;SDS011;4030;52.362;9.206;2023-07-16T06:42:26;3.80;;;1.67;;
7969;SDS011;4030;52.362;9.206;2023-07-16T06:44:52;2.90;;;1.65;;
7969;SDS011;4030;52.362;9.206;2023-07-16T06:47:17;3.75;;;1.63;;
7969;SDS011;4030;52.362;9.206;2023-07-16T06:49:43;3.35;;;1.70;;
7969;SDS011;4030;52.362;9.206;2023-07-16T06:52:18;3.55;;;1.75;;
7969;SDS011;4030;52.362;9.206;2023-07-16T06:54:45;4.28;;;1.65;;
7969;SDS011;4030;52.362;9.206;2023-07-16T06:57:11;3.25;;;1.60;;
7969;SDS011;4030;52.362;9.206;2023-07-16T06:59:36;2.67;;;1.60;;
7969;SDS011;4030;52.362;9.206;2023-07-16T07:02:02;3.80;;;1.83;;
7969;SDS011;4030;52.362;9.206;2023-07-16T07:04:28;3.83;;;1.85;;
7969;SDS011;4030;52.362;9.206;2023-07-16T07:06:53;3.03;;;1.90;;
7969;SDS011;4030;52.362;9.206;2023-07-16T07:09:19;4.65;;;1.77;;
7969;SDS011;4030;52.362;9.206;2023-07-16T07:11:45;3.00;;;1.90;;
7969;SDS011;4030;52.362;9.206;2023-07-16T07:14:10;3.17;;;2.15;;
7969;SDS011;4030;52.362;9.206;2023-07-16T07:16:36;3.88;;;2.13;;
7969;SDS011;4030;52.362;9.206;2023-07-16T07:19:02;3.10;;;2.10;;
7969;SDS011;4030;52.362;9.206;2023-07-16T07:21:27;4.50;;;2.40;;
7969;SDS011;4030;52.362;9.206;2023-07-16T07:23:53;4.97;;;2.28;;
7969;SDS011;4030;52.362;9.206;2023-07-16T07:26:19;4.22;;;2.45;;
7969;SDS011;4030;52.362;9.206;2023-07-16T07:28:44;4.18;;;2.17;;
7969;SDS011;4030;52.362;9.206;2023-07-16T07:31:10;5.28;;;2.53;;
7969;SDS011;4030;52.362;9.206;2023-07-16T07:33:36;4.68;;;2.63;;
7969;SDS011;4030;52.362;9.206;2023-07-16T07:36:01;3.83;;;2.60;;
7969;SDS011;4030;52.362;9.206;2023-07-16T07:38:27;3.95;;;2.50;;
7969;SDS011;4030;52.362;9.206;2023-07-16T07:40:53;5.82;;;3.13;;
7969;SDS011;4030;52.362;9.206;2023-07-16T07:43:19;4.57;;;2.63;;
7969;SDS011;4030;52.362;9.206;2023-07-16T07:45:45;4.20;;;2.53;;
7969;SDS011;4030;52.362;9.206;2023-07-16T07:48:10;4.15;;;2.40;;
7969;SDS011;4030;52.362;9.206;2023-07-16T07:50:36;4.47;;;2.45;;
7969;SDS011;4030;52.362;9.206;2023-07-16T07:53:02;5.28;;;2.75;;
7969;SDS011;4030;52.362;9.206;2023-07-16T07:55:27;4.55;;;2.80;;
7969;SDS011;4030;52.362;9.206;2023-07-16T07:57:53;4.20;;;2.67;;
7969;SDS011;4030;52.362;9.206;2023-07-16T08:00:19;4.63;;;2.45;;
7969;SDS011;4030;52.362;9.206;2023-07-16T08:02:45;4.50;;;2.67;;
7969;SDS011;4030;52.362;9.206;2023-07-16T08:05:11;3.97;;;2.70;;
7969;SDS011;4030;52.362;9.206;2023-07-16T08:07:36;5.35;;;2.80;;
7969;SDS011;4030;52.362;9.206;2023-07-16T08:10:02;4.55;;;2.42;;
7969;SDS011;4030;52.362;9.206;2023-07-16T08:12:29;8.45;;;2.80;;
7969;SDS011;4030;52.362;9.206;2023-07-16T08:14:55;4.65;;;2.47;;
7969;SDS011;4030;52.362;9.206;2023-07-16T08:17:21;5.30;;;2.35;;
7969;SDS011;4030;52.362;9.206;2023-07-16T08:19:47;7.55;;;2.72;;
7969;SDS011;4030;52.362;9.206;2023-07-16T08:22:13;7.03;;;2.70;;
7969;SDS011;4030;52.362;9.206;2023-07-16T08:24:38;4.05;;;2.50;;
7969;SDS011;4030;52.362;9.206;2023-07-16T08:27:04;5.60;;;2.60;;
7969;SDS011;4030;52.362;9.206;2023-07-16T08:29:30;5.00;;;2.45;;
7969;SDS011;4030;52.362;9.206;2023-07-16T08:31:56;6.07;;;2.70;;
7969;SDS011;4030;52.362;9.206;2023-07-16T08:34:22;5.00;;;2.55;;
7969;SDS011;4030;52.362;9.206;2023-07-16T08:36:47;3.85;;;2.45;;
7969;SDS011;4030;52.362;9.206;2023-07-16T08:39:13;3.72;;;2.10;;
7969;SDS011;4030;52.362;9.206;2023-07-16T08:41:39;4.55;;;2.42;;
7969;SDS011;4030;52.362;9.206;2023-07-16T08:44:05;3.97;;;2.53;;
7969;SDS011;4030;52.362;9.206;2023-07-16T08:46:31;3.85;;;2.45;;
7969;SDS011;4030;52.362;9.206;2023-07-16T08:48:57;5.10;;;2.38;;
7969;SDS011;4030;52.362;9.206;2023-07-16T08:51:25;4.20;;;2.35;;
7969;SDS011;4030;52.362;9.206;2023-07-16T08:53:51;3.63;;;2.38;;
7969;SDS011;4030;52.362;9.206;2023-07-16T08:56:17;3.92;;;2.30;;
7969;SDS011;4030;52.362;9.206;2023-07-16T08:58:43;4.45;;;2.30;;
7969;SDS011;4030;52.362;9.206;2023-07-16T09:01:12;4.93;;;2.45;;
7969;SDS011;4030;52.362;9.206;2023-07-16T09:03:38;2.65;;;2.05;;
7969;SDS011;4030;52.362;9.206;2023-07-16T09:06:04;3.42;;;2.25;;
7969;SDS011;4030;52.362;9.206;2023-07-16T09:08:30;4.55;;;2.58;;
7969;SDS011;4030;52.362;9.206;2023-07-16T09:10:56;4.68;;;2.58;;
7969;SDS011;4030;52.362;9.206;2023-07-16T09:13:23;5.60;;;2.30;;
7969;SDS011;4030;52.362;9.206;2023-07-16T09:15:53;4.43;;;2.40;;
7969;SDS011;4030;52.362;9.206;2023-07-16T09:18:21;4.25;;;2.42;;
7969;SDS011;4030;52.362;9.206;2023-07-16T09:20:57;3.72;;;2.10;;
7969;SDS011;4030;52.362;9.206;2023-07-16T09:23:27;3.17;;;2.35;;
7969;SDS011;4030;52.362;9.206;2023-07-16T09:25:56;5.10;;;2.30;;
7969;SDS011;4030;52.362;9.206;2023-07-16T09:28:22;4.25;;;2.30;;
7969;SDS011;4030;52.362;9.206;2023-07-16T09:30:48;2.85;;;1.95;;
7969;SDS011;4030;52.362;9.206;2023-07-16T09:33:21;3.72;;;1.88;;
7969;SDS011;4030;52.362;9.206;2023-07-16T09:35:51;3.90;;;2.20;;
7969;SDS011;4030;52.362;9.206;2023-07-16T09:38:17;3.17;;;2.00;;
7969;SDS011;4030;52.362;9.206;2023-07-16T09:40:44;3.42;;;1.80;;
7969;SDS011;4030;52.362;9.206;2023-07-16T09:43:11;3.25;;;2.13;;
7969;SDS011;4030;52.362;9.206;2023-07-16T09:45:37;3.03;;;2.10;;
7969;SDS011;4030;52.362;9.206;2023-07-16T09:48:03;3.03;;;2.00;;
7969;SDS011;4030;52.362;9.206;2023-07-16T09:50:33;4.15;;;2.30;;
7969;SDS011;4030;52.362;9.206;2023-07-16T09:53:01;3.53;;;1.90;;
7969;SDS011;4030;52.362;9.206;2023-07-16T09:55:34;3.90;;;2.08;;
7969;SDS011;4030;52.362;9.206;2023-07-16T09:58:02;3.33;;;2.13;;
7969;SDS011;4030;52.362;9.206;2023-07-16T10:00:34;6.70;;;2.15;;
7969;SDS011;4030;52.362;9.206;2023-07-16T10:03:01;6.65;;;2.20;;
7969;SDS011;4030;52.362;9.206;2023-07-16T10:05:35;9.60;;;2.80;;
7969;SDS011;4030;52.362;9.206;2023-07-16T10:08:04;8.05;;;2.28;;
7969;SDS011;4030;52.362;9.206;2023-07-16T10:10:42;5.13;;;2.38;;
7969;SDS011;4030;52.362;9.206;2023-07-16T10:13:13;5.75;;;2.17;;
7969;SDS011;4030;52.362;9.206;2023-07-16T10:15:50;6.38;;;2.15;;
7969;SDS011;4030;52.362;9.206;2023-07-16T10:18:25;5.82;;;2.08;;
7969;SDS011;4030;52.362;9.206;2023-07-16T10:20:59;5.07;;;2.15;;
7969;SDS011;4030;52.362;9.206;2023-07-16T10:23:36;4.93;;;2.28;;
7969;SDS011;4030;52.362;9.206;2023-07-16T10:26:12;3.08;;;2.10;;
7969;SDS011;4030;52.362;9.206;2023-07-16T10:28:39;4.22;;;2.22;;
7969;SDS011;4030;52.362;9.206;2023-07-16T10:31:05;4.80;;;2.30;;
7969;SDS011;4030;52.362;9.206;2023-07-16T10:33:42;5.32;;;2.28;;
7969;SDS011;4030;52.362;9.206;2023-07-16T10:36:08;2.95;;;2.13;;
7969;SDS011;4030;52.362;9.206;2023-07-16T10:38:40;4.47;;;2.22;;
7969;SDS011;4030;52.362;9.206;2023-07-16T10:41:09;2.90;;;2.15;;
7969;SDS011;4030;52.362;9.206;2023-07-16T10:43:34;3.72;;;2.00;;
7969;SDS011;4030;52.362;9.206;2023-07-16T10:46:01;3.58;;;2.00;;
7969;SDS011;4030;52.362;9.206;2023-07-16T10:48:27;4.30;;;2.15;;
7969;SDS011;4030;52.362;9.206;2023-07-16T10:50:53;3.88;;;2.17;;
7969;SDS011;4030;52.362;9.206;2023-07-16T10:53:19;4.45;;;2.00;;
7969;SDS011;4030;52.362;9.206;2023-07-16T10:55:45;3.25;;;2.30;;
7969;SDS011;4030;52.362;9.206;2023-07-16T10:58:11;3.17;;;2.10;;
7969;SDS011;4030;52.362;9.206;2023-07-16T11:00:38;3.78;;;2.22;;
7969;SDS011;4030;52.362;9.206;2023-07-16T11:03:04;3.58;;;2.13;;
7969;SDS011;4030;52.362;9.206;2023-07-16T11:05:31;2.92;;;2.33;;
7969;SDS011;4030;52.362;9.206;2023-07-16T11:07:56;3.20;;;2.03;;
7969;SDS011;4030;52.362;9.206;2023-07-16T11:10:22;2.92;;;2.00;;
7969;SDS011;4030;52.362;9.206;2023-07-16T11:12:52;2.90;;;1.88;;
7969;SDS011;4030;52.362;9.206;2023-07-16T11:15:18;3.33;;;1.83;;
7969;SDS011;4030;52.362;9.206;2023-07-16T11:17:55;2.78;;;2.08;;
7969;SDS011;4030;52.362;9.206;2023-07-16T11:20:20;2.28;;;2.00;;
7969;SDS011;4030;52.362;9.206;2023-07-16T11:22:47;4.38;;;2.40;;
7969;SDS011;4030;52.362;9.206;2023-07-16T11:25:13;4.20;;;2.20;;
7969;SDS011;4030;52.362;9.206;2023-07-16T11:27:40;2.88;;;1.90;;
7969;SDS011;4030;52.362;9.206;2023-07-16T11:30:07;3.00;;;1.77;;
7969;SDS011;4030;52.362;9.206;2023-07-16T11:32:34;5.15;;;2.40;;
7969;SDS011;4030;52.362;9.206;2023-07-16T11:35:15;4.15;;;2.13;;
7969;SDS011;4030;52.362;9.206;2023-07-16T11:37:42;4.78;;;2.08;;
7969;SDS011;4030;52.362;9.206;2023-07-16T11:40:09;5.90;;;2.35;;
7969;SDS011;4030;52.362;9.206;2023-07-16T11:42:39;2.97;;;1.85;;
7969;SDS011;4030;52.362;9.206;2023-07-16T11:45:17;3.20;;;1.90;;
7969;SDS011;4030;52.362;9.206;2023-07-16T11:47:53;2.55;;;2.00;;
7969;SDS011;4030;52.362;9.206;2023-07-16T11:50:19;4.53;;;2.38;;
7969;SDS011;4030;52.362;9.206;2023-07-16T11:52:51;3.13;;;2.08;;
7969;SDS011;4030;52.362;9.206;2023-07-16T11:55:18;3.60;;;2.30;;
7969;SDS011;4030;52.362;9.206;2023-07-16T11:57:44;3.42;;;2.17;;
7969;SDS011;4030;52.362;9.206;2023-07-16T12:00:10;4.18;;;1.90;;
7969;SDS011;4030;52.362;9.206;2023-07-16T12:02:36;3.22;;;2.17;;
7969;SDS011;4030;52.362;9.206;2023-07-16T12:05:02;3.03;;;2.00;;
7969;SDS011;4030;52.362;9.206;2023-07-16T12:07:35;3.22;;;2.10;;
7969;SDS011;4030;52.362;9.206;2023-07-16T12:10:03;2.70;;;2.10;;
7969;SDS011;4030;52.362;9.206;2023-07-16T12:12:31;3.05;;;2.22;;
7969;SDS011;4030;52.362;9.206;2023-07-16T12:14:58;4.72;;;2.25;;
7969;SDS011;4030;52.362;9.206;2023-07-16T12:17:25;3.80;;;2.17;;
7969;SDS011;4030;52.362;9.206;2023-07-16T12:19:50;4.10;;;2.10;;
7969;SDS011;4030;52.362;9.206;2023-07-16T12:22:17;4.25;;;2.45;;
7969;SDS011;4030;52.362;9.206;2023-07-16T12:24:43;2.83;;;2.03;;
7969;SDS011;4030;52.362;9.206;2023-07-16T12:27:10;6.28;;;2.30;;
7969;SDS011;4030;52.362;9.206;2023-07-16T12:29:35;4.00;;;2.10;;
7969;SDS011;4030;52.362;9.206;2023-07-16T12:32:01;3.13;;;2.30;;
7969;SDS011;4030;52.362;9.206;2023-07-16T12:34:27;3.72;;;2.28;;
7969;SDS011;4030;52.362;9.206;2023-07-16T12:36:53;2.80;;;2.00;;
7969;SDS011;4030;52.362;9.206;2023-07-16T12:39:20;3.50;;;2.17;;
7969;SDS011;4030;52.362;9.206;2023-07-16T12:41:46;2.88;;;2.10;;
7969;SDS011;4030;52.362;9.206;2023-07-16T12:44:12;2.58;;;2.10;;
7969;SDS011;4030;52.362;9.206;2023-07-16T12:46:38;3.55;;;2.30;;
7969;SDS011;4030;52.362;9.206;2023-07-16T12:49:03;3.58;;;2.20;;
7969;SDS011;4030;52.362;9.206;2023-07-16T12:51:29;4.55;;;2.30;;
7969;SDS011;4030;52.362;9.206;2023-07-16T12:53:55;4.05;;;2.15;;
7969;SDS011;4030;52.362;9.206;2023-07-16T12:56:20;3.17;;;2.45;;
7969;SDS011;4030;52.362;9.206;2023-07-16T12:58:47;3.53;;;2.50;;
7969;SDS011;4030;52.362;9.206;2023-07-16T13:01:13;3.22;;;2.20;;
7969;SDS011;4030;52.362;9.206;2023-07-16T13:03:39;3.72;;;2.00;;
7969;SDS011;4030;52.362;9.206;2023-07-16T13:06:05;2.40;;;2.00;;
7969;SDS011;4030;52.362;9.206;2023-07-16T13:08:30;2.95;;;1.80;;
7969;SDS011;4030;52.362;9.206;2023-07-16T13:10:56;2.80;;;2.10;;
7969;SDS011;4030;52.362;9.206;2023-07-16T13:13:22;3.90;;;2.40;;
7969;SDS011;4030;52.362;9.206;2023-07-16T13:15:48;4.43;;;2.10;;
7969;SDS011;4030;52.362;9.206;2023-07-16T13:18:14;5.28;;;2.60;;
7969;SDS011;4030;52.362;9.206;2023-07-16T13:20:39;4.07;;;2.30;;
7969;SDS011;4030;52.362;9.206;2023-07-16T13:23:05;4.18;;;2.30;;
7969;SDS011;4030;52.362;9.206;2023-07-16T13:25:33;3.13;;;2.17;;
7969;SDS011;4030;52.362;9.206;2023-07-16T13:28:00;2.70;;;1.80;;
7969;SDS011;4030;52.362;9.206;2023-07-16T13:30:27;3.03;;;1.98;;
7969;SDS011;4030;52.362;9.206;2023-07-16T13:32:53;3.97;;;2.30;;
7969;SDS011;4030;52.362;9.206;2023-07-16T13:35:21;3.08;;;2.13;;
7969;SDS011;4030;52.362;9.206;2023-07-16T13:37:47;3.45;;;2.25;;
7969;SDS011;4030;52.362;9.206;2023-07-16T13:40:13;4.07;;;2.00;;
7969;SDS011;4030;52.362;9.206;2023-07-16T13:42:39;3.20;;;2.33;;
7969;SDS011;4030;52.362;9.206;2023-07-16T13:45:05;3.15;;;2.00;;
7969;SDS011;4030;52.362;9.206;2023-07-16T13:47:31;3.08;;;2.40;;
7969;SDS011;4030;52.362;9.206;2023-07-16T13:49:57;2.83;;;2.10;;
7969;SDS011;4030;52.362;9.206;2023-07-16T13:52:23;2.15;;;1.90;;
7969;SDS011;4030;52.362;9.206;2023-07-16T13:54:48;3.63;;;2.30;;
7969;SDS011;4030;52.362;9.206;2023-07-16T13:57:14;4.00;;;2.30;;
7969;SDS011;4030;52.362;9.206;2023-07-16T13:59:40;4.30;;;2.25;;
7969;SDS011;4030;52.362;9.206;2023-07-16T14:02:05;2.83;;;2.10;;
7969;SDS011;4030;52.362;9.206;2023-07-16T14:04:32;3.25;;;2.13;;
7969;SDS011;4030;52.362;9.206;2023-07-16T14:06:58;2.88;;;2.08;;
7969;SDS011;4030;52.362;9.206;2023-07-16T14:09:24;3.30;;;2.10;;
7969;SDS011;4030;52.362;9.206;2023-07-16T14:11:50;2.92;;;1.98;;
7969;SDS011;4030;52.362;9.206;2023-07-16T14:14:20;4.47;;;2.13;;
7969;SDS011;4030;52.362;9.206;2023-07-16T14:16:46;3.85;;;2.20;;
7969;SDS011;4030;52.362;9.206;2023-07-16T14:19:12;3.95;;;2.00;;
7969;SDS011;4030;52.362;9.206;2023-07-16T14:21:38;3.25;;;2.00;;
7969;SDS011;4030;52.362;9.206;2023-07-16T14:24:04;2.65;;;1.80;;
7969;SDS011;4030;52.362;9.206;2023-07-16T14:26:30;3.67;;;2.17;;
7969;SDS011;4030;52.362;9.206;2023-07-16T14:28:56;4.10;;;2.33;;
7969;SDS011;4030;52.362;9.206;2023-07-16T14:31:22;3.38;;;2.20;;
7969;SDS011;4030;52.362;9.206;2023-07-16T14:33:48;4.30;;;2.10;;
7969;SDS011;4030;52.362;9.206;2023-07-16T14:36:14;4.43;;;2.10;;
7969;SDS011;4030;52.362;9.206;2023-07-16T14:38:39;3.65;;;2.40;;
7969;SDS011;4030;52.362;9.206;2023-07-16T14:41:05;3.80;;;2.17;;
7969;SDS011;4030;52.362;9.206;2023-07-16T14:43:32;2.25;;;1.85;;
7969;SDS011;4030;52.362;9.206;2023-07-16T14:45:58;2.63;;;1.83;;
7969;SDS011;4030;52.362;9.206;2023-07-16T14:48:24;4.53;;;2.08;;
7969;SDS011;4030;52.362;9.206;2023-07-16T14:50:52;3.10;;;2.10;;
7969;SDS011;4030;52.362;9.206;2023-07-16T14:53:18;2.13;;;1.80;;
7969;SDS011;4030;52.362;9.206;2023-07-16T14:55:48;2.47;;;1.80;;
7969;SDS011;4030;52.362;9.206;2023-07-16T14:58:18;4.25;;;1.73;;
7969;SDS011;4030;52.362;9.206;2023-07-16T15:00:45;2.15;;;1.77;;
7969;SDS011;4030;52.362;9.206;2023-07-16T15:03:11;2.22;;;1.73;;
7969;SDS011;4030;52.362;9.206;2023-07-16T15:05:37;4.00;;;2.10;;
7969;SDS011;4030;52.362;9.206;2023-07-16T15:08:04;2.63;;;1.83;;
7969;SDS011;4030;52.362;9.206;2023-07-16T15:10:30;3.17;;;2.10;;
7969;SDS011;4030;52.362;9.206;2023-07-16T15:12:56;2.50;;;1.67;;
7969;SDS011;4030;52.362;9.206;2023-07-16T15:15:21;3.13;;;1.70;;
7969;SDS011;4030;52.362;9.206;2023-07-16T15:17:47;2.13;;;1.70;;
7969;SDS011;4030;52.362;9.206;2023-07-16T15:20:13;3.05;;;2.00;;